sensor_id;sensor_type;location;lat;lon;timestamp;pressure;altitude;pressure_sealevel;temperature;humidity
33075;BME280;76138;50.768;7.212;2024-03-23T00:54:30;99769.34;;;11.18;93.79
33075;BME280;76138;50.768;7.212;2024-03-23T00:56:57;99755.53;;;11.18;94.76
33075;BME280;76138;50.768;7.212;2024-03-23T00:59:22;99741.06;;;11.16;93.83
33075;BME280;76138;50.768;7.212;2024-03-23T01:01:52;99754.81;;;11.29;93.40
33075;BME280;76138;50.768;7.212;2024-03-23T01:04:17;99767.38;;;11.25;94.00
33075;BME280;76138;50.768;7.212;2024-03-23T01:06:43;99753.97;;;11.47;93.02
33075;BME280;76138;50.768;7.212;2024-03-23T01:09:08;99756.03;;;11.33;93.22
33075;BME280;76138;50.768;7.212;2024-03-23T01:11:36;99758.75;;;11.15;94.29
33075;BME280;76138;50.768;7.212;2024-03-23T01:14:11;99759.69;;;11.02;94.70
33075;BME280;76138;50.768;7.212;2024-03-23T01:20:36;99753.19;;;10.65;95.64
33075;BME280;76138;50.768;7.212;2024-03-23T01:26:25;99747.03;;;10.63;95.68
33075;BME280;76138;50.768;7.212;2024-03-23T01:32:12;99759.06;;;10.75;94.70
33075;BME280;76138;50.768;7.212;2024-03-23T01:38:16;99750.66;;;10.88;94.83
33075;BME280;76138;50.768;7.212;2024-03-23T01:40:41;99748.28;;;10.67;94.69
33075;BME280;76138;50.768;7.212;2024-03-23T01:43:07;99749.78;;;10.63;95.17
33075;BME280;76138;50.768;7.212;2024-03-23T01:45:33;99755.31;;;10.63;95.51
33075;BME280;76138;50.768;7.212;2024-03-23T01:47:59;99757.53;;;10.48;95.81
33075;BME280;76138;50.768;7.212;2024-03-23T01:50:31;99757.09;;;10.82;94.45
33075;BME280;76138;50.768;7.212;2024-03-23T01:56:22;99708.78;;;10.91;93.17
33075;BME280;76138;50.768;7.212;2024-03-23T02:02:10;99716.22;;;10.28;94.59
33075;BME280;76138;50.768;7.212;2024-03-23T02:08:00;99709.97;;;10.46;93.48
33075;BME280;76138;50.768;7.212;2024-03-23T02:17:43;99708.97;;;10.65;92.45
33075;BME280;76138;50.768;7.212;2024-03-23T02:24:02;99705.25;;;10.08;95.85
33075;BME280;76138;50.768;7.212;2024-03-23T02:29:49;99694.75;;;9.01;98.19
33075;BME280;76138;50.768;7.212;2024-03-23T02:32:15;99709.84;;;8.86;98.73
33075;BME280;76138;50.768;7.212;2024-03-23T02:34:40;99705.91;;;9.52;95.76
33075;BME280;76138;50.768;7.212;2024-03-23T02:37:10;99725.63;;;9.49;94.54
33075;BME280;76138;50.768;7.212;2024-03-23T02:39:36;99729.25;;;9.50;94.00
33075;BME280;76138;50.768;7.212;2024-03-23T02:42:01;99741.31;;;9.62;93.29
33075;BME280;76138;50.768;7.212;2024-03-23T02:44:26;99728.22;;;9.38;94.45
33075;BME280;76138;50.768;7.212;2024-03-23T02:46:52;99713.06;;;9.67;92.36
33075;BME280;76138;50.768;7.212;2024-03-23T02:49:17;99721.28;;;9.86;92.54
33075;BME280;76138;50.768;7.212;2024-03-23T02:51:42;99733.53;;;10.04;91.37
33075;BME280;76138;50.768;7.212;2024-03-23T02:54:10;99727.16;;;9.19;94.01
33075;BME280;76138;50.768;7.212;2024-03-23T02:56:35;99733.47;;;9.59;93.35
33075;BME280;76138;50.768;7.212;2024-03-23T02:59:00;99732.50;;;9.14;95.16
33075;BME280;76138;50.768;7.212;2024-03-23T03:01:26;99750.06;;;9.39;94.31
33075;BME280;76138;50.768;7.212;2024-03-23T03:03:51;99737.34;;;8.53;96.17
33075;BME280;76138;50.768;7.212;2024-03-23T03:06:24;99742.41;;;8.49;97.30
33075;BME280;76138;50.768;7.212;2024-03-23T03:08:49;99740.28;;;8.44;96.61
33075;BME280;76138;50.768;7.212;2024-03-23T03:11:14;99750.16;;;8.26;97.11
33075;BME280;76138;50.768;7.212;2024-03-23T03:13:40;99737.75;;;8.50;96.11
33075;BME280;76138;50.768;7.212;2024-03-23T03:16:09;99744.34;;;8.55;95.38
33075;BME280;76138;50.768;7.212;2024-03-23T03:18:34;99756.25;;;8.15;96.68
33075;BME280;76138;50.768;7.212;2024-03-23T03:21:00;99738.63;;;7.96;97.32
33075;BME280;76138;50.768;7.212;2024-03-23T03:23:25;99744.69;;;8.32;96.70
33075;BME280;76138;50.768;7.212;2024-03-23T03:25:51;99733.59;;;8.06;97.40
33075;BME280;76138;50.768;7.212;2024-03-23T03:28:16;99748.00;;;8.15;96.83
33075;BME280;76138;50.768;7.212;2024-03-23T03:30:41;99755.34;;;8.01;96.21
33075;BME280;76138;50.768;7.212;2024-03-23T03:33:06;99756.66;;;8.11;94.51
33075;BME280;76138;50.768;7.212;2024-03-23T03:35:32;99766.56;;;7.99;93.82
33075;BME280;76138;50.768;7.212;2024-03-23T03:37:57;99776.72;;;7.99;92.05
33075;BME280;76138;50.768;7.212;2024-03-23T03:40:22;99763.16;;;7.91;92.21
33075;BME280;76138;50.768;7.212;2024-03-23T03:42:48;99761.34;;;8.18;92.19
33075;BME280;76138;50.768;7.212;2024-03-23T03:45:14;99760.06;;;8.07;91.77
33075;BME280;76138;50.768;7.212;2024-03-23T03:47:39;99769.53;;;8.52;89.60
33075;BME280;76138;50.768;7.212;2024-03-23T03:50:05;99762.31;;;8.38;90.47
33075;BME280;76138;50.768;7.212;2024-03-23T03:52:30;99749.94;;;8.27;91.03
33075;BME280;76138;50.768;7.212;2024-03-23T03:55:01;99780.84;;;8.29;90.71
33075;BME280;76138;50.768;7.212;2024-03-23T03:57:30;99791.22;;;8.27;90.66
33075;BME280;76138;50.768;7.212;2024-03-23T03:59:55;99789.06;;;8.16;90.11
33075;BME280;76138;50.768;7.212;2024-03-23T04:02:21;99778.16;;;8.42;90.49
33075;BME280;76138;50.768;7.212;2024-03-23T04:04:46;99783.97;;;8.67;88.42
33075;BME280;76138;50.768;7.212;2024-03-23T04:07:12;99777.81;;;8.65;88.84
33075;BME280;76138;50.768;7.212;2024-03-23T04:09:37;99756.78;;;8.44;88.19
33075;BME280;76138;50.768;7.212;2024-03-23T04:12:03;99783.94;;;8.61;87.58
33075;BME280;76138;50.768;7.212;2024-03-23T04:14:28;99787.50;;;8.48;88.55
33075;BME280;76138;50.768;7.212;2024-03-23T04:16:53;99795.63;;;8.76;87.26
33075;BME280;76138;50.768;7.212;2024-03-23T04:19:18;99798.00;;;8.31;87.01
33075;BME280;76138;50.768;7.212;2024-03-23T04:21:44;99777.81;;;8.65;86.99
33075;BME280;76138;50.768;7.212;2024-03-23T04:24:10;99791.16;;;8.62;88.90
33075;BME280;76138;50.768;7.212;2024-03-23T04:26:42;99786.63;;;8.34;87.76
33075;BME280;76138;50.768;7.212;2024-03-23T04:29:07;99791.94;;;8.36;88.31
33075;BME280;76138;50.768;7.212;2024-03-23T04:31:32;99802.84;;;8.90;86.34
33075;BME280;76138;50.768;7.212;2024-03-23T04:34:00;99804.69;;;8.57;88.44
33075;BME280;76138;50.768;7.212;2024-03-23T04:36:25;99808.09;;;8.11;90.34
33075;BME280;76138;50.768;7.212;2024-03-23T04:38:59;99818.16;;;8.32;89.98
33075;BME280;76138;50.768;7.212;2024-03-23T04:41:25;99817.03;;;8.20;90.37
33075;BME280;76138;50.768;7.212;2024-03-23T04:43:51;99815.84;;;7.94;92.02
33075;BME280;76138;50.768;7.212;2024-03-23T04:46:16;99803.88;;;7.74;92.88
33075;BME280;76138;50.768;7.212;2024-03-23T04:48:42;99814.22;;;7.72;92.48
33075;BME280;76138;50.768;7.212;2024-03-23T04:51:09;99822.94;;;7.75;92.37
33075;BME280;76138;50.768;7.212;2024-03-23T04:53:35;99820.94;;;7.97;92.14
33075;BME280;76138;50.768;7.212;2024-03-23T04:56:00;99815.00;;;7.59;93.48
33075;BME280;76138;50.768;7.212;2024-03-23T04:58:48;99822.88;;;7.69;92.68
33075;BME280;76138;50.768;7.212;2024-03-23T05:01:14;99824.81;;;8.09;91.04
33075;BME280;76138;50.768;7.212;2024-03-23T05:03:39;99810.09;;;7.55;92.44
33075;BME280;76138;50.768;7.212;2024-03-23T05:06:04;99805.59;;;7.82;91.65
33075;BME280;76138;50.768;7.212;2024-03-23T05:08:30;99820.47;;;7.87;91.21
33075;BME280;76138;50.768;7.212;2024-03-23T05:10:55;99827.84;;;8.21;89.39
33075;BME280;76138;50.768;7.212;2024-03-23T05:13:21;99825.44;;;7.70;91.35
33075;BME280;76138;50.768;7.212;2024-03-23T05:15:55;99820.94;;;7.97;91.55
33075;BME280;76138;50.768;7.212;2024-03-23T05:18:21;99826.44;;;7.97;91.37
33075;BME280;76138;50.768;7.212;2024-03-23T05:20:47;99804.56;;;7.83;92.10
33075;BME280;76138;50.768;7.212;2024-03-23T05:23:13;99813.00;;;7.19;94.00
33075;BME280;76138;50.768;7.212;2024-03-23T05:25:38;99811.81;;;7.56;94.59
33075;BME280;76138;50.768;7.212;2024-03-23T05:28:03;99816.50;;;7.62;94.13
33075;BME280;76138;50.768;7.212;2024-03-23T05:30:29;99827.00;;;7.24;95.69
33075;BME280;76138;50.768;7.212;2024-03-23T05:32:54;99830.00;;;7.29;95.60
33075;BME280;76138;50.768;7.212;2024-03-23T05:35:19;99832.78;;;7.35;95.52
33075;BME280;76138;50.768;7.212;2024-03-23T05:37:44;99810.59;;;6.88;97.17
33075;BME280;76138;50.768;7.212;2024-03-23T05:40:11;99810.69;;;7.22;96.02
33075;BME280;76138;50.768;7.212;2024-03-23T05:42:37;99834.63;;;7.56;94.83
33075;BME280;76138;50.768;7.212;2024-03-23T05:45:03;99812.59;;;7.50;94.17
33075;BME280;76138;50.768;7.212;2024-03-23T05:47:31;99825.19;;;7.37;94.53
33075;BME280;76138;50.768;7.212;2024-03-23T05:49:57;99835.50;;;7.29;95.31
33075;BME280;76138;50.768;7.212;2024-03-23T05:52:22;99839.97;;;7.36;95.21
33075;BME280;76138;50.768;7.212;2024-03-23T05:54:47;99836.78;;;7.61;94.54
33075;BME280;76138;50.768;7.212;2024-03-23T05:57:13;99842.97;;;7.69;93.85
33075;BME280;76138;50.768;7.212;2024-03-23T05:59:38;99823.41;;;7.23;95.06
33075;BME280;76138;50.768;7.212;2024-03-23T06:02:03;99842.06;;;6.85;96.01
33075;BME280;76138;50.768;7.212;2024-03-23T06:04:29;99817.06;;;6.59;97.15
33075;BME280;76138;50.768;7.212;2024-03-23T06:06:54;99802.81;;;6.91;96.39
33075;BME280;76138;50.768;7.212;2024-03-23T06:09:19;99827.47;;;7.06;96.36
33075;BME280;76138;50.768;7.212;2024-03-23T06:11:45;99826.44;;;6.64;97.56
33075;BME280;76138;50.768;7.212;2024-03-23T06:14:10;99841.16;;;6.57;97.82
33075;BME280;76138;50.768;7.212;2024-03-23T06:16:35;99839.50;;;6.41;98.41
33075;BME280;76138;50.768;7.212;2024-03-23T06:19:01;99837.03;;;6.67;97.47
33075;BME280;76138;50.768;7.212;2024-03-23T06:21:28;99848.47;;;6.92;96.30
33075;BME280;76138;50.768;7.212;2024-03-23T06:23:54;99848.72;;;6.97;96.20
33075;BME280;76138;50.768;7.212;2024-03-23T06:26:20;99841.06;;;7.14;95.80
33075;BME280;76138;50.768;7.212;2024-03-23T06:28:48;99831.91;;;7.07;95.11
33075;BME280;76138;50.768;7.212;2024-03-23T06:31:14;99813.63;;;6.93;95.65
33075;BME280;76138;50.768;7.212;2024-03-23T06:33:39;99840.03;;;6.72;96.94
33075;BME280;76138;50.768;7.212;2024-03-23T06:36:06;99835.84;;;6.55;96.99
33075;BME280;76138;50.768;7.212;2024-03-23T06:38:33;99841.53;;;6.96;96.38
33075;BME280;76138;50.768;7.212;2024-03-23T06:40:59;99831.66;;;6.81;96.20
33075;BME280;76138;50.768;7.212;2024-03-23T06:43:25;99848.31;;;6.58;97.28
33075;BME280;76138;50.768;7.212;2024-03-23T06:45:53;99836.72;;;6.98;95.75
33075;BME280;76138;50.768;7.212;2024-03-23T06:48:19;99846.53;;;6.86;95.58
33075;BME280;76138;50.768;7.212;2024-03-23T06:50:45;99841.16;;;6.78;97.05
33075;BME280;76138;50.768;7.212;2024-03-23T06:53:11;99859.91;;;6.96;96.85
33075;BME280;76138;50.768;7.212;2024-03-23T06:55:36;99869.81;;;7.18;96.27
33075;BME280;76138;50.768;7.212;2024-03-23T06:58:01;99868.22;;;7.02;96.03
33075;BME280;76138;50.768;7.212;2024-03-23T07:00:27;99851.13;;;7.07;96.20
33075;BME280;76138;50.768;7.212;2024-03-23T07:02:52;99859.09;;;7.23;95.52
33075;BME280;76138;50.768;7.212;2024-03-23T07:05:18;99867.97;;;7.47;94.76
33075;BME280;76138;50.768;7.212;2024-03-23T07:07:43;99853.53;;;7.38;94.97
33075;BME280;76138;50.768;7.212;2024-03-23T07:10:08;99859.66;;;7.40;95.65
33075;BME280;76138;50.768;7.212;2024-03-23T07:12:33;99853.03;;;7.56;94.63
33075;BME280;76138;50.768;7.212;2024-03-23T07:14:59;99867.84;;;7.33;94.44
33075;BME280;76138;50.768;7.212;2024-03-23T07:17:24;99855.28;;;7.18;95.06
33075;BME280;76138;50.768;7.212;2024-03-23T07:19:49;99848.06;;;7.17;94.29
33075;BME280;76138;50.768;7.212;2024-03-23T07:22:14;99872.09;;;7.36;95.87
33075;BME280;76138;50.768;7.212;2024-03-23T07:24:40;99870.59;;;7.33;94.27
33075;BME280;76138;50.768;7.212;2024-03-23T07:27:05;99875.81;;;7.50;94.77
33075;BME280;76138;50.768;7.212;2024-03-23T07:29:35;99857.25;;;7.86;93.91
33075;BME280;76138;50.768;7.212;2024-03-23T07:32:00;99873.88;;;8.06;93.51
33075;BME280;76138;50.768;7.212;2024-03-23T07:34:25;99867.38;;;7.79;92.50
33075;BME280;76138;50.768;7.212;2024-03-23T07:36:50;99877.94;;;7.75;93.18
33075;BME280;76138;50.768;7.212;2024-03-23T07:39:16;99873.88;;;8.06;91.89
33075;BME280;76138;50.768;7.212;2024-03-23T07:41:44;99876.28;;;8.63;90.18
33075;BME280;76138;50.768;7.212;2024-03-23T07:44:10;99861.50;;;8.23;90.06
33075;BME280;76138;50.768;7.212;2024-03-23T07:46:35;99859.69;;;8.43;89.53
33075;BME280;76138;50.768;7.212;2024-03-23T07:49:00;99869.75;;;8.71;87.78
33075;BME280;76138;50.768;7.212;2024-03-23T07:51:26;99870.00;;;8.89;86.95
33075;BME280;76138;50.768;7.212;2024-03-23T07:53:51;99882.28;;;8.87;86.36
33075;BME280;76138;50.768;7.212;2024-03-23T07:56:18;99884.44;;;8.85;87.36
33075;BME280;76138;50.768;7.212;2024-03-23T07:58:44;99891.88;;;9.04;86.13
33075;BME280;76138;50.768;7.212;2024-03-23T08:01:15;99891.28;;;9.15;85.29
33075;BME280;76138;50.768;7.212;2024-03-23T08:03:42;99885.34;;;9.25;83.83
33075;BME280;76138;50.768;7.212;2024-03-23T08:06:09;99877.50;;;9.55;83.73
33075;BME280;76138;50.768;7.212;2024-03-23T08:08:35;99893.22;;;9.61;82.85
33075;BME280;76138;50.768;7.212;2024-03-23T08:11:00;99901.50;;;9.61;82.54
33075;BME280;76138;50.768;7.212;2024-03-23T08:13:51;99914.59;;;9.98;81.62
33075;BME280;76138;50.768;7.212;2024-03-23T08:16:16;99900.84;;;9.92;81.51
33075;BME280;76138;50.768;7.212;2024-03-23T08:18:42;99904.44;;;9.39;81.66
33075;BME280;76138;50.768;7.212;2024-03-23T08:21:07;99898.69;;;9.34;82.61
33075;BME280;76138;50.768;7.212;2024-03-23T08:23:36;99901.06;;;9.44;81.62
33075;BME280;76138;50.768;7.212;2024-03-23T08:26:15;99922.50;;;9.62;80.75
33075;BME280;76138;50.768;7.212;2024-03-23T08:28:41;99904.75;;;8.84;80.86
33075;BME280;76138;50.768;7.212;2024-03-23T08:31:11;99900.63;;;8.53;78.48
33075;BME280;76138;50.768;7.212;2024-03-23T08:33:37;99910.06;;;8.85;74.77
33075;BME280;76138;50.768;7.212;2024-03-23T08:36:05;99921.94;;;8.86;72.86
33075;BME280;76138;50.768;7.212;2024-03-23T08:38:31;99919.06;;;9.40;70.86
33075;BME280;76138;50.768;7.212;2024-03-23T08:41:04;99906.56;;;9.37;68.26
33075;BME280;76138;50.768;7.212;2024-03-23T08:43:32;99915.28;;;9.61;66.90
33075;BME280;76138;50.768;7.212;2024-03-23T08:46:05;99917.16;;;9.53;65.58
33075;BME280;76138;50.768;7.212;2024-03-23T08:48:40;99917.97;;;10.27;67.16
33075;BME280;76138;50.768;7.212;2024-03-23T08:51:08;99913.84;;;10.55;65.07
33075;BME280;76138;50.768;7.212;2024-03-23T08:53:37;99919.47;;;10.36;66.11
33075;BME280;76138;50.768;7.212;2024-03-23T08:56:04;99905.22;;;10.32;64.07
33075;BME280;76138;50.768;7.212;2024-03-23T08:58:30;99925.63;;;10.18;63.96
33075;BME280;76138;50.768;7.212;2024-03-23T09:01:04;99907.88;;;10.65;64.56
33075;BME280;76138;50.768;7.212;2024-03-23T09:03:30;99923.56;;;11.16;64.70
33075;BME280;76138;50.768;7.212;2024-03-23T09:05:56;99921.78;;;11.59;64.21
33075;BME280;76138;50.768;7.212;2024-03-23T09:08:23;99924.03;;;11.76;63.03
33075;BME280;76138;50.768;7.212;2024-03-23T09:14:12;99900.53;;;11.28;64.15
33075;BME280;76138;50.768;7.212;2024-03-23T09:16:50;99899.34;;;11.43;62.53
33075;BME280;76138;50.768;7.212;2024-03-23T09:19:17;99908.59;;;11.30;62.99
33075;BME280;76138;50.768;7.212;2024-03-23T09:21:42;99903.91;;;11.87;62.80
33075;BME280;76138;50.768;7.212;2024-03-23T09:24:07;99906.88;;;11.60;64.36
33075;BME280;76138;50.768;7.212;2024-03-23T09:26:33;99893.09;;;11.22;68.20
33075;BME280;76138;50.768;7.212;2024-03-23T09:28:58;99892.09;;;10.08;70.75
33075;BME280;76138;50.768;7.212;2024-03-23T09:31:23;99888.50;;;10.20;75.77
33075;BME280;76138;50.768;7.212;2024-03-23T09:33:48;99894.84;;;9.95;79.18
33075;BME280;76138;50.768;7.212;2024-03-23T09:36:14;99894.41;;;10.37;78.76
33075;BME280;76138;50.768;7.212;2024-03-23T09:38:41;99895.56;;;10.68;78.01
33075;BME280;76138;50.768;7.212;2024-03-23T09:41:09;99875.63;;;11.28;78.16
33075;BME280;76138;50.768;7.212;2024-03-23T09:43:35;99892.53;;;11.95;76.19
33075;BME280;76138;50.768;7.212;2024-03-23T09:46:04;99899.91;;;11.26;74.22
33075;BME280;76138;50.768;7.212;2024-03-23T09:48:30;99881.81;;;11.55;73.82
33075;BME280;76138;50.768;7.212;2024-03-23T09:50:56;99895.00;;;11.53;71.87
33075;BME280;76138;50.768;7.212;2024-03-23T09:53:22;99875.25;;;11.50;72.95
33075;BME280;76138;50.768;7.212;2024-03-23T09:55:47;99867.41;;;11.15;66.54
33075;BME280;76138;50.768;7.212;2024-03-23T09:58:14;99876.09;;;10.87;66.37
33075;BME280;76138;50.768;7.212;2024-03-23T10:00:40;99871.31;;;11.01;65.23
33075;BME280;76138;50.768;7.212;2024-03-23T10:03:05;99870.41;;;11.14;65.60
33075;BME280;76138;50.768;7.212;2024-03-23T10:05:32;99869.44;;;10.57;65.94
33075;BME280;76138;50.768;7.212;2024-03-23T10:08:00;99863.28;;;11.00;64.81
33075;BME280;76138;50.768;7.212;2024-03-23T10:10:25;99859.63;;;10.23;66.95
33075;BME280;76138;50.768;7.212;2024-03-23T10:12:51;99867.81;;;10.43;64.12
33075;BME280;76138;50.768;7.212;2024-03-23T10:15:21;99881.28;;;11.09;63.53
33075;BME280;76138;50.768;7.212;2024-03-23T10:17:47;99896.94;;;11.21;63.57
33075;BME280;76138;50.768;7.212;2024-03-23T10:20:12;99877.06;;;10.68;62.54
33075;BME280;76138;50.768;7.212;2024-03-23T10:22:38;99873.84;;;11.09;62.48
33075;BME280;76138;50.768;7.212;2024-03-23T10:25:08;99868.19;;;11.29;62.66
33075;BME280;76138;50.768;7.212;2024-03-23T10:27:34;99875.94;;;11.45;63.37
33075;BME280;76138;50.768;7.212;2024-03-23T10:30:09;99869.25;;;10.97;62.80
33075;BME280;76138;50.768;7.212;2024-03-23T10:32:34;99872.25;;;10.44;60.64
33075;BME280;76138;50.768;7.212;2024-03-23T10:35:21;99866.63;;;9.99;66.63
33075;BME280;76138;50.768;7.212;2024-03-23T10:37:47;99883.81;;;9.95;69.92
33075;BME280;76138;50.768;7.212;2024-03-23T10:40:15;99858.84;;;9.50;71.06
33075;BME280;76138;50.768;7.212;2024-03-23T10:42:40;99877.72;;;9.46;72.26
33075;BME280;76138;50.768;7.212;2024-03-23T10:45:06;99907.69;;;8.69;76.67
33075;BME280;76138;50.768;7.212;2024-03-23T10:47:34;99900.63;;;8.25;77.33
33075;BME280;76138;50.768;7.212;2024-03-23T10:50:00;99892.50;;;8.38;77.14
33075;BME280;76138;50.768;7.212;2024-03-23T10:52:25;99892.50;;;8.04;75.63
33075;BME280;76138;50.768;7.212;2024-03-23T10:54:51;99914.03;;;8.00;75.10
33075;BME280;76138;50.768;7.212;2024-03-23T10:57:31;99928.47;;;8.02;73.63
33075;BME280;76138;50.768;7.212;2024-03-23T10:59:59;99931.66;;;8.34;73.28
33075;BME280;76138;50.768;7.212;2024-03-23T11:02:26;99932.50;;;8.06;72.27
33075;BME280;76138;50.768;7.212;2024-03-23T11:04:53;99934.59;;;8.04;71.82
33075;BME280;76138;50.768;7.212;2024-03-23T11:09:53;99910.78;;;8.18;70.38
33075;BME280;76138;50.768;7.212;2024-03-23T11:14:48;99923.50;;;8.26;71.51
33075;BME280;76138;50.768;7.212;2024-03-23T11:17:21;99909.41;;;8.83;69.80
33075;BME280;76138;50.768;7.212;2024-03-23T11:25:19;99919.94;;;10.77;63.67
33075;BME280;76138;50.768;7.212;2024-03-23T11:27:46;99918.78;;;10.40;63.51
33075;BME280;76138;50.768;7.212;2024-03-23T11:32:38;99904.28;;;10.65;63.14
33075;BME280;76138;50.768;7.212;2024-03-23T11:35:04;99914.69;;;11.07;62.22
33075;BME280;76138;50.768;7.212;2024-03-23T11:37:29;99881.78;;;10.99;63.64
33075;BME280;76138;50.768;7.212;2024-03-23T11:39:54;99904.97;;;10.53;61.89
33075;BME280;76138;50.768;7.212;2024-03-23T11:42:20;99907.88;;;11.10;62.52
33075;BME280;76138;50.768;7.212;2024-03-23T11:44:47;99898.50;;;11.11;60.95
33075;BME280;76138;50.768;7.212;2024-03-23T11:47:12;99886.84;;;10.64;62.55
33075;BME280;76138;50.768;7.212;2024-03-23T11:49:38;99891.88;;;10.23;62.27
33075;BME280;76138;50.768;7.212;2024-03-23T11:52:06;99885.56;;;9.89;62.18
33075;BME280;76138;50.768;7.212;2024-03-23T11:54:32;99875.75;;;10.19;63.23
33075;BME280;76138;50.768;7.212;2024-03-23T11:57:02;99872.75;;;10.79;60.89
33075;BME280;76138;50.768;7.212;2024-03-23T11:59:39;99866.94;;;10.93;59.76
33075;BME280;76138;50.768;7.212;2024-03-23T12:02:12;99889.00;;;11.32;58.37
33075;BME280;76138;50.768;7.212;2024-03-23T12:04:40;99883.75;;;11.48;56.59
33075;BME280;76138;50.768;7.212;2024-03-23T12:07:16;99881.50;;;11.07;56.24
33075;BME280;76138;50.768;7.212;2024-03-23T12:09:46;99870.19;;;10.26;58.36
33075;BME280;76138;50.768;7.212;2024-03-23T12:12:18;99868.94;;;10.22;60.39
33075;BME280;76138;50.768;7.212;2024-03-23T12:14:44;99879.31;;;10.27;62.34
33075;BME280;76138;50.768;7.212;2024-03-23T12:17:10;99870.25;;;10.00;63.67
33075;BME280;76138;50.768;7.212;2024-03-23T12:19:35;99866.19;;;10.22;63.83
33075;BME280;76138;50.768;7.212;2024-03-23T12:22:00;99860.31;;;9.72;64.85
33075;BME280;76138;50.768;7.212;2024-03-23T12:24:27;99843.31;;;9.82;64.51
33075;BME280;76138;50.768;7.212;2024-03-23T12:26:52;99860.09;;;9.74;64.92
33075;BME280;76138;50.768;7.212;2024-03-23T12:29:18;99842.69;;;9.86;65.75
33075;BME280;76138;50.768;7.212;2024-03-23T12:31:43;99832.84;;;10.10;64.46
33075;BME280;76138;50.768;7.212;2024-03-23T12:34:09;99827.72;;;10.34;62.86
33075;BME280;76138;50.768;7.212;2024-03-23T12:36:34;99844.34;;;9.94;63.96
33075;BME280;76138;50.768;7.212;2024-03-23T12:38:59;99837.00;;;9.62;65.52
33075;BME280;76138;50.768;7.212;2024-03-23T12:41:25;99819.47;;;10.20;66.05
33075;BME280;76138;50.768;7.212;2024-03-23T12:43:50;99832.00;;;10.68;66.83
33075;BME280;76138;50.768;7.212;2024-03-23T12:46:16;99836.00;;;10.72;65.54
33075;BME280;76138;50.768;7.212;2024-03-23T12:48:41;99844.06;;;11.11;63.68
33075;BME280;76138;50.768;7.212;2024-03-23T12:51:09;99860.00;;;11.41;63.08
33075;BME280;76138;50.768;7.212;2024-03-23T12:53:34;99867.47;;;10.71;62.60
33075;BME280;76138;50.768;7.212;2024-03-23T12:55:59;99892.47;;;10.38;61.94
33075;BME280;76138;50.768;7.212;2024-03-23T12:58:25;99882.72;;;10.29;62.44
33075;BME280;76138;50.768;7.212;2024-03-23T13:00:50;99873.59;;;10.08;63.35
33075;BME280;76138;50.768;7.212;2024-03-23T13:03:15;99880.69;;;9.58;64.26
33075;BME280;76138;50.768;7.212;2024-03-23T13:05:40;99884.31;;;9.45;64.39
33075;BME280;76138;50.768;7.212;2024-03-23T13:08:06;99881.31;;;9.27;65.91
33075;BME280;76138;50.768;7.212;2024-03-23T13:10:32;99869.44;;;9.33;65.44
33075;BME280;76138;50.768;7.212;2024-03-23T13:12:58;99889.94;;;10.36;63.23
33075;BME280;76138;50.768;7.212;2024-03-23T13:15:23;99898.38;;;10.99;61.21
33075;BME280;76138;50.768;7.212;2024-03-23T13:17:48;99901.34;;;10.98;59.11
33075;BME280;76138;50.768;7.212;2024-03-23T13:20:13;99892.44;;;10.96;58.30
33075;BME280;76138;50.768;7.212;2024-03-23T13:22:40;99878.19;;;10.92;58.53
33075;BME280;76138;50.768;7.212;2024-03-23T13:25:06;99875.38;;;10.67;58.85
33075;BME280;76138;50.768;7.212;2024-03-23T13:27:31;99882.34;;;11.08;59.13
33075;BME280;76138;50.768;7.212;2024-03-23T13:29:56;99881.53;;;11.32;57.92
33075;BME280;76138;50.768;7.212;2024-03-23T13:32:21;99857.19;;;11.16;56.67
33075;BME280;76138;50.768;7.212;2024-03-23T13:34:47;99862.03;;;11.27;57.23
33075;BME280;76138;50.768;7.212;2024-03-23T13:37:15;99844.53;;;11.83;55.66
33075;BME280;76138;50.768;7.212;2024-03-23T13:39:40;99858.06;;;12.34;53.97
33075;BME280;76138;50.768;7.212;2024-03-23T13:42:07;99842.28;;;12.16;53.40
33075;BME280;76138;50.768;7.212;2024-03-23T13:44:34;99858.97;;;12.28;50.87
33075;BME280;76138;50.768;7.212;2024-03-23T13:46:59;99859.13;;;12.15;49.44
33075;BME280;76138;50.768;7.212;2024-03-23T13:49:25;99857.66;;;12.49;48.94
33075;BME280;76138;50.768;7.212;2024-03-23T13:51:51;99847.13;;;12.21;49.43
33075;BME280;76138;50.768;7.212;2024-03-23T13:54:18;99843.44;;;12.45;50.20
33075;BME280;76138;50.768;7.212;2024-03-23T13:56:43;99824.31;;;12.85;50.54
33075;BME280;76138;50.768;7.212;2024-03-23T13:59:09;99832.09;;;12.95;50.19
33075;BME280;76138;50.768;7.212;2024-03-23T14:04:56;99839.41;;;12.89;50.96
33075;BME280;76138;50.768;7.212;2024-03-23T14:07:40;99838.75;;;13.47;49.39
33075;BME280;76138;50.768;7.212;2024-03-23T14:10:05;99831.25;;;12.94;51.35
33075;BME280;76138;50.768;7.212;2024-03-23T14:12:36;99826.97;;;12.80;51.38
33075;BME280;76138;50.768;7.212;2024-03-23T14:15:05;99824.03;;;12.45;52.63
33075;BME280;76138;50.768;7.212;2024-03-23T14:20:58;99825.16;;;11.83;52.83
33075;BME280;76138;50.768;7.212;2024-03-23T14:26:39;99832.03;;;11.98;54.22
33075;BME280;76138;50.768;7.212;2024-03-23T14:29:06;99835.16;;;11.59;55.02
33075;BME280;76138;50.768;7.212;2024-03-23T14:31:31;99835.84;;;11.30;56.39
33075;BME280;76138;50.768;7.212;2024-03-23T14:33:56;99829.66;;;11.03;55.66
33075;BME280;76138;50.768;7.212;2024-03-23T14:36:22;99828.78;;;10.33;55.92
33075;BME280;76138;50.768;7.212;2024-03-23T14:38:48;99838.09;;;10.38;55.99
33075;BME280;76138;50.768;7.212;2024-03-23T14:41:13;99839.19;;;10.24;55.94
33075;BME280;76138;50.768;7.212;2024-03-23T14:43:39;99841.75;;;10.12;56.65
33075;BME280;76138;50.768;7.212;2024-03-23T14:46:10;99836.22;;;10.26;57.35
33075;BME280;76138;50.768;7.212;2024-03-23T14:48:37;99809.19;;;9.70;64.55
33075;BME280;76138;50.768;7.212;2024-03-23T14:51:05;99825.94;;;9.48;68.78
33075;BME280;76138;50.768;7.212;2024-03-23T14:53:34;99843.38;;;9.16;69.58
33075;BME280;76138;50.768;7.212;2024-03-23T14:56:00;99841.84;;;9.07;69.99
33075;BME280;76138;50.768;7.212;2024-03-23T14:58:26;99838.56;;;8.51;73.77
33075;BME280;76138;50.768;7.212;2024-03-23T15:00:51;99840.28;;;8.17;74.40
33075;BME280;76138;50.768;7.212;2024-03-23T15:03:17;99819.78;;;8.26;71.92